Time;durP1;ratioP1;P1;durP2;ratioP2;P2;SDS_P1;SDS_P2;PMS_P1;PMS_P2;Temp;Humidity;BMP_temperature;BMP_pressure;BME280_temperature;BME280_humidity;BME280_pressure;Samples;Min_cycle;Max_cycle;Signal;HPM_P1;HPM_P2
2022/10/13 00:00:45;;;;;;;17.35;5.20;;;;;;;22.33;66.59;99204.38;2075353;28;20061;-50
2022/10/13 00:01:46;;;;;;;11.20;5.63;;;;;;;22.33;66.71;99207.06;2081223;28;20443;-48
2022/10/13 00:02:47;;;;;;;14.85;5.85;;;;;;;22.33;66.62;99207.06;2080287;28;20041;-49
2022/10/13 00:03:49;;;;;;;16.13;4.60;;;;;;;22.32;66.61;99208.13;2074690;28;20054;-47
2022/10/13 00:04:50;;;;;;;10.63;4.82;;;;;;;22.33;66.80;99198.97;2074155;28;20403;-48
2022/10/13 00:05:52;;;;;;;16.35;5.07;;;;;;;22.33;66.58;99201.66;2072192;28;20143;-46
2022/10/13 00:06:53;;;;;;;13.27;4.18;;;;;;;22.33;66.68;99198.13;2072521;28;20041;-48
2022/10/13 00:07:55;;;;;;;12.55;4.63;;;;;;;22.32;66.66;99200.03;2074878;28;20041;-48
2022/10/13 00:08:57;;;;;;;13.80;4.65;;;;;;;22.33;66.58;99198.13;2075178;28;20064;-50
2022/10/13 00:09:59;;;;;;;9.77;4.13;;;;;;;22.32;66.73;99194.63;2074102;28;20562;-51
2022/10/13 00:11:00;;;;;;;13.93;4.82;;;;;;;22.33;66.67;99201.66;2075301;28;20057;-49
2022/10/13 00:12:02;;;;;;;12.27;5.15;;;;;;;22.33;66.75;99198.13;2071239;28;20068;-47
2022/10/13 00:13:03;;;;;;;14.48;4.30;;;;;;;22.32;66.76;99200.03;2073123;28;20049;-46
2022/10/13 00:14:05;;;;;;;15.25;4.32;;;;;;;22.32;66.58;99194.63;2074310;28;20081;-48
2022/10/13 00:15:08;;;;;;;7.90;3.78;;;;;;;22.33;66.73;99192.72;2074141;28;20057;-48
2022/10/13 00:16:14;;;;;;;15.73;5.22;;;;;;;22.33;66.69;99198.97;2074331;28;20048;-47
2022/10/13 00:17:15;;;;;;;12.10;4.40;;;;;;;22.32;66.64;99197.31;2075045;28;20077;-49
2022/10/13 00:18:17;;;;;;;10.40;4.32;;;;;;;22.35;66.62;99196.06;2074939;28;20381;-47
2022/10/13 00:19:17;;;;;;;10.27;4.25;;;;;;;22.34;66.49;99200.63;2075992;28;20098;-49
2022/10/13 00:20:19;;;;;;;13.77;5.32;;;;;;;22.35;66.73;99198.75;2070256;28;20053;-50
2022/10/13 00:21:22;;;;;;;12.13;4.38;;;;;;;22.34;66.54;99195.22;2074757;28;20514;-48
2022/10/13 00:22:24;;;;;;;14.27;5.85;;;;;;;22.33;66.76;99193.56;2074916;28;20453;-47
2022/10/13 00:23:25;;;;;;;10.45;4.85;;;;;;;22.33;66.59;99196.25;2071439;28;20087;-47
2022/10/13 00:24:27;;;;;;;9.10;4.10;;;;;;;22.32;66.52;99200.03;2073633;28;20647;-48
2022/10/13 00:25:28;;;;;;;12.07;4.72;;;;;;;22.33;66.65;99190.03;2074815;28;20057;-48
2022/10/13 00:26:30;;;;;;;9.05;4.03;;;;;;;22.34;66.61;99197.09;2074267;28;20136;-49
2022/10/13 00:27:30;;;;;;;12.45;4.57;;;;;;;22.34;66.71;99197.91;2074298;28;20254;-49
2022/10/13 00:28:33;;;;;;;10.50;4.00;;;;;;;22.34;66.50;99188.97;2075919;28;20111;-47
2022/10/13 00:29:34;;;;;;;13.43;5.28;;;;;;;22.34;66.75;99192.50;2072729;28;20057;-50
2022/10/13 00:30:35;;;;;;;11.30;4.50;;;;;;;22.33;66.57;99196.25;2073197;28;20049;-50
2022/10/13 00:31:38;;;;;;;10.98;4.75;;;;;;;22.34;66.68;99188.97;2076527;28;20180;-49
2022/10/13 00:32:39;;;;;;;12.27;3.97;;;;;;;22.33;66.67;99195.44;2074641;28;20107;-48
2022/10/13 00:33:40;;;;;;;11.13;5.07;;;;;;;22.33;66.68;99190.84;2077171;28;20049;-51
2022/10/13 00:34:42;;;;;;;8.70;4.18;;;;;;;22.35;66.61;99194.19;2073368;28;20058;-48
2022/10/13 00:35:45;;;;;;;10.65;5.35;;;;;;;22.34;66.49;99194.38;2077092;28;20050;-48
2022/10/13 00:36:47;;;;;;;8.80;4.82;;;;;;;22.33;66.43;99188.16;2073822;28;20546;-49
2022/10/13 00:37:47;;;;;;;12.50;4.95;;;;;;;22.33;66.59;99190.84;2075402;28;20053;-53
2022/10/13 00:38:49;;;;;;;11.30;4.80;;;;;;;22.32;66.68;99186.50;2076445;28;20053;-48
2022/10/13 00:39:50;;;;;;;9.55;4.68;;;;;;;22.32;66.42;99189.22;2076626;28;20083;-48
2022/10/13 00:40:54;;;;;;;10.98;3.92;;;;;;;22.33;66.55;99195.44;2077017;28;20084;-49
2022/10/13 00:41:56;;;;;;;8.40;4.72;;;;;;;22.33;66.61;99192.72;2074227;28;20037;-58
2022/10/13 00:42:57;;;;;;;8.80;3.70;;;;;;;22.33;66.78;99190.03;2072978;28;20057;-48
2022/10/13 00:44:00;;;;;;;13.52;4.65;;;;;;;22.32;66.65;99194.63;2072728;28;20053;-48
2022/10/13 00:45:06;;;;;;;9.27;4.78;;;;;;;22.33;66.66;99193.56;2070560;28;20060;-49
2022/10/13 00:46:07;;;;;;;14.13;4.95;;;;;;;22.33;66.82;99190.84;2068370;28;20124;-49
2022/10/13 00:47:11;;;;;;;9.13;4.60;;;;;;;22.32;66.76;99200.03;2065639;28;20042;-47
2022/10/13 00:48:12;;;;;;;10.50;4.90;;;;;;;22.33;66.83;99190.03;2068653;28;20049;-49
2022/10/13 00:49:14;;;;;;;8.32;4.18;;;;;;;22.32;66.68;99186.50;2068249;28;20107;-50
2022/10/13 00:50:18;;;;;;;11.18;3.72;;;;;;;22.32;66.76;99186.50;2070542;28;21812;-48
2022/10/13 00:51:24;;;;;;;15.20;4.50;;;;;;;22.33;66.97;99187.31;2072091;28;20122;-48
2022/10/13 00:52:25;;;;;;;15.65;4.97;;;;;;;22.32;66.93;99178.41;2074138;28;20042;-48
2022/10/13 00:53:32;;;;;;;15.77;5.95;;;;;;;22.33;66.94;99190.03;2074424;28;20056;-48
2022/10/13 00:54:32;;;;;;;10.80;5.00;;;;;;;22.32;66.90;99189.22;2070311;28;20046;-49
2022/10/13 00:55:38;;;;;;;9.85;4.82;;;;;;;22.32;66.88;99186.50;2069143;28;20059;-49
2022/10/13 00:56:41;;;;;;;11.90;5.03;;;;;;;22.30;66.98;99181.31;2071330;28;20044;-49
2022/10/13 00:57:46;;;;;;;12.15;5.85;;;;;;;22.32;66.94;99186.50;2071805;28;20081;-48
2022/10/13 00:58:48;;;;;;;9.98;4.20;;;;;;;22.33;67.02;99187.31;2072423;28;20053;-50
2022/10/13 00:59:50;;;;;;;9.55;4.70;;;;;;;22.31;66.95;99182.13;2074177;28;20663;-48
2022/10/13 01:00:52;;;;;;;9.13;3.80;;;;;;;22.33;67.11;99190.03;2075754;28;20534;-47
2022/10/13 01:01:54;;;;;;;12.30;4.30;;;;;;;22.32;67.17;99185.69;2074533;28;20077;-47
2022/10/13 01:02:57;;;;;;;7.32;3.83;;;;;;;22.30;67.05;99180.47;2072699;28;20480;-50
2022/10/13 01:03:58;;;;;;;16.00;4.40;;;;;;;22.29;67.27;99176.13;2073414;28;20136;-48
2022/10/13 01:05:01;;;;;;;10.27;5.03;;;;;;;22.30;67.35;99175.91;2073023;28;20063;-48
2022/10/13 01:06:04;;;;;;;9.45;3.67;;;;;;;22.31;67.23;99176.72;2071843;28;20056;-50
2022/10/13 01:07:06;;;;;;;11.45;4.53;;;;;;;22.32;67.22;99169.47;2072074;28;20053;-48
2022/10/13 01:08:08;;;;;;;10.25;4.57;;;;;;;22.32;67.26;99173.00;2071450;28;20050;-49
2022/10/13 01:09:10;;;;;;;7.72;4.43;;;;;;;22.32;66.90;99167.59;2071950;28;20058;-48
2022/10/13 01:10:11;;;;;;;11.05;5.18;;;;;;;22.30;66.83;99169.66;2073259;28;20053;-48
2022/10/13 01:11:43;;;;;;;9.38;4.75;;;;;;;22.27;67.21;99173.63;2073060;28;20052;-50
2022/10/13 01:12:56;;;;;;;13.85;4.60;;;;;;;22.27;67.20;99165.53;2072890;28;20053;-47
2022/10/13 01:14:07;;;;;;;13.50;5.25;;;;;;;22.27;67.21;99162.81;2072226;28;20234;-47
2022/10/13 01:15:12;;;;;;;7.60;3.47;;;;;;;22.27;67.04;99164.69;2073537;28;20060;-49
2022/10/13 01:16:23;;;;;;;8.52;3.67;;;;;;;22.28;67.30;99156.34;2073491;28;20048;-49
2022/10/13 01:17:32;;;;;;;9.07;4.20;;;;;;;22.28;67.24;99166.34;2072556;28;20381;-48
2022/10/13 01:18:45;;;;;;;10.02;3.80;;;;;;;22.27;67.19;99154.72;2071871;28;20068;-48
2022/10/13 01:20:31;;;;;;;11.90;4.68;;;;;;;22.26;67.30;99165.75;2077552;28;20041;-47
2022/10/13 01:21:38;;;;;;;14.65;4.03;;;;;;;22.24;67.02;99159.72;2073329;28;20041;-48
2022/10/13 01:22:50;;;;;;;10.85;4.13;;;;;;;22.25;67.17;99151.38;2073751;28;20049;-47
2022/10/13 01:24:13;;;;;;;7.43;3.92;;;;;;;22.25;67.16;99161.38;2075448;28;20053;-50
2022/10/13 01:25:33;;;;;;;12.60;6.15;;;;;;;22.26;67.20;99160.34;2074378;28;20049;-47
2022/10/13 01:26:59;;;;;;;11.15;5.15;;;;;;;22.24;67.39;99159.72;2071612;28;20048;-48
2022/10/13 01:28:33;;;;;;;12.27;3.85;;;;;;;22.24;67.55;99154.31;2073800;28;20261;-47
2022/10/13 01:30:08;;;;;;;9.20;4.63;;;;;;;22.20;67.26;99156.59;2064134;28;20138;-46
2022/10/13 01:31:17;;;;;;;9.32;3.67;;;;;;;22.23;67.27;99148.09;2073235;28;20628;-51
2022/10/13 01:32:27;;;;;;;9.25;4.07;;;;;;;22.24;67.24;99160.56;2073956;28;20052;-46
2022/10/13 01:33:39;;;;;;;12.35;5.57;;;;;;;22.25;67.25;99155.97;2073688;28;20456;-47
2022/10/13 01:34:46;;;;;;;12.23;4.40;;;;;;;22.24;67.31;99147.03;2074983;28;20041;-47
2022/10/13 01:36:04;;;;;;;8.55;4.70;;;;;;;22.24;67.33;99148.91;2078340;28;20126;-49
2022/10/13 01:37:15;;;;;;;6.68;3.65;;;;;;;22.26;67.23;99152.25;2077183;28;20241;-47
2022/10/13 01:38:26;;;;;;;25.88;4.80;;;;;;;22.26;67.23;99147.66;2078690;28;20057;-49
2022/10/13 01:39:36;;;;;;;7.35;3.33;;;;;;;22.26;67.13;99144.13;2073485;28;20073;-48
2022/10/13 01:40:43;;;;;;;7.78;3.60;;;;;;;22.27;67.02;99143.09;2073663;28;20046;-46
2022/10/13 01:41:48;;;;;;;8.50;4.28;;;;;;;22.26;67.32;99131.44;2075612;28;20092;-47
2022/10/13 01:42:58;;;;;;;13.50;4.57;;;;;;;22.27;67.16;99140.38;2074266;28;20124;-46
2022/10/13 01:44:05;;;;;;;9.52;4.20;;;;;;;22.26;67.29;99131.44;2074038;28;20103;-48
2022/10/13 01:45:13;;;;;;;6.50;3.75;;;;;;;22.27;67.15;99134.97;2074638;28;20507;-48
2022/10/13 01:46:20;;;;;;;13.63;4.40;;;;;;;22.27;67.22;99129.56;2074020;28;20046;-48
2022/10/13 01:47:22;;;;;;;8.07;3.90;;;;;;;22.27;67.04;99134.97;2076085;28;20038;-47
2022/10/13 01:48:26;;;;;;;13.15;4.38;;;;;;;22.27;67.29;99134.97;2074638;28;20054;-48
2022/10/13 01:49:32;;;;;;;11.57;4.55;;;;;;;22.29;67.03;99135.59;2072653;28;20042;-46
2022/10/13 01:50:36;;;;;;;15.88;4.22;;;;;;;22.28;67.23;99129.34;2075681;28;20047;-48
2022/10/13 01:51:38;;;;;;;7.03;4.03;;;;;;;22.28;67.44;99131.22;2074151;28;20057;-48
2022/10/13 01:52:42;;;;;;;7.28;3.90;;;;;;;22.28;67.28;99133.91;2075859;28;20046;-46
2022/10/13 01:53:45;;;;;;;8.73;3.42;;;;;;;22.27;67.02;99133.09;2072414;28;20103;-46
2022/10/13 01:54:48;;;;;;;10.25;3.47;;;;;;;22.29;67.08;99131.00;2071737;28;20103;-48
2022/10/13 01:55:51;;;;;;;11.00;4.53;;;;;;;22.28;66.86;99134.75;2072935;28;20114;-49
2022/10/13 01:56:53;;;;;;;7.75;3.83;;;;;;;22.29;67.17;99132.91;2078650;28;20053;-51
2022/10/13 01:57:54;;;;;;;7.72;3.83;;;;;;;22.30;67.05;99135.38;2078008;28;20565;-48
2022/10/13 01:58:59;;;;;;;8.02;3.95;;;;;;;22.30;66.89;99134.53;2074931;28;20049;-55
2022/10/13 02:00:02;;;;;;;12.70;4.88;;;;;;;22.29;66.88;99133.72;2074836;28;20110;-48
2022/10/13 02:01:28;;;;;;;12.15;5.10;;;;;;;22.28;66.75;99136.63;2072487;28;20069;-47
2022/10/13 02:02:33;;;;;;;6.82;3.95;;;;;;;22.26;66.93;99131.44;2079471;28;20049;-46
2022/10/13 02:03:47;;;;;;;9.65;3.92;;;;;;;22.26;66.98;99131.44;2074894;28;20059;-47
2022/10/13 02:04:59;;;;;;;11.65;4.43;;;;;;;22.26;66.83;99138.72;2070900;28;20509;-48
2022/10/13 02:06:12;;;;;;;7.43;3.60;;;;;;;22.25;66.89;99134.34;2074504;28;20053;-47
2022/10/13 02:07:19;;;;;;;6.07;3.45;;;;;;;22.25;66.89;99135.19;2073330;28;20041;-48
2022/10/13 02:08:30;;;;;;;14.93;4.05;;;;;;;22.24;66.69;99133.53;2070578;28;20080;-49
2022/10/13 02:09:41;;;;;;;13.98;4.45;;;;;;;22.25;66.92;99134.34;2072734;28;20042;-49
2022/10/13 02:10:50;;;;;;;8.73;5.03;;;;;;;22.23;66.91;99123.78;2073246;28;20110;-46
2022/10/13 02:11:57;;;;;;;8.00;3.88;;;;;;;22.25;67.08;99129.78;2071508;28;20667;-48
2022/10/13 02:13:02;;;;;;;8.25;3.22;;;;;;;22.25;66.73;99131.66;2072195;28;20057;-46
2022/10/13 02:14:10;;;;;;;11.93;4.40;;;;;;;22.26;66.83;99128.75;2071148;28;20484;-47
2022/10/13 02:15:16;;;;;;;7.70;3.75;;;;;;;22.27;66.96;99124.16;2070422;28;20076;-48
2022/10/13 02:16:22;;;;;;;9.00;3.50;;;;;;;22.27;66.81;99124.16;2073894;28;20065;-47
2022/10/13 02:17:26;;;;;;;7.43;3.85;;;;;;;22.26;66.85;99125.22;2073725;28;20054;-48
2022/10/13 02:18:29;;;;;;;9.40;3.95;;;;;;;22.26;66.87;99119.81;2073979;28;20099;-47
2022/10/13 02:19:35;;;;;;;9.43;3.63;;;;;;;22.27;66.67;99121.47;2075640;28;20045;-50
2022/10/13 02:20:36;;;;;;;6.18;3.67;;;;;;;22.26;66.68;99120.63;2077037;28;20049;-47
2022/10/13 02:21:38;;;;;;;8.15;3.88;;;;;;;22.27;66.82;99116.06;2069583;28;20053;-47
2022/10/13 02:22:45;;;;;;;9.05;4.10;;;;;;;22.28;66.76;99110.41;2074052;28;20479;-47
2022/10/13 02:23:47;;;;;;;12.48;4.28;;;;;;;22.27;66.96;99110.66;2075166;28;20065;-48
2022/10/13 02:24:48;;;;;;;7.70;3.42;;;;;;;22.26;66.95;99109.84;2075134;28;20098;-47
2022/10/13 02:25:50;;;;;;;7.85;4.28;;;;;;;22.27;66.76;99110.66;2074146;28;20054;-48
2022/10/13 02:26:52;;;;;;;8.82;3.47;;;;;;;22.27;66.81;99105.25;2072364;28;20054;-48
2022/10/13 02:27:54;;;;;;;9.13;3.83;;;;;;;22.28;66.77;99106.91;2071217;28;20053;-48
2022/10/13 02:28:56;;;;;;;10.90;3.65;;;;;;;22.26;66.78;99107.13;2072320;28;20049;-48
2022/10/13 02:29:57;;;;;;;12.05;4.57;;;;;;;22.27;66.81;99107.94;2071965;28;20496;-48
2022/10/13 02:30:59;;;;;;;10.18;3.50;;;;;;;22.27;66.71;99100.66;2074116;28;20057;-51
2022/10/13 02:32:01;;;;;;;8.63;3.80;;;;;;;22.28;66.57;99104.19;2071890;28;20057;-50
2022/10/13 02:33:03;;;;;;;7.97;4.05;;;;;;;22.27;66.81;99100.66;2073895;28;20049;-48
2022/10/13 02:34:04;;;;;;;11.10;4.45;;;;;;;22.26;66.67;99099.03;2073363;28;20766;-50
2022/10/13 02:35:07;;;;;;;16.63;3.75;;;;;;;22.27;66.48;99099.84;2072102;28;20057;-47
2022/10/13 02:36:08;;;;;;;10.60;4.18;;;;;;;22.27;66.61;99105.25;2076030;28;20153;-51
2022/10/13 02:37:10;;;;;;;7.95;3.50;;;;;;;22.27;66.70;99107.94;2072644;28;20068;-48
2022/10/13 02:38:11;;;;;;;13.93;4.22;;;;;;;22.27;66.67;99097.97;2073677;28;20515;-47
2022/10/13 02:39:13;;;;;;;5.45;3.90;;;;;;;22.27;66.71;99105.25;2071764;28;20077;-47
2022/10/13 02:40:14;;;;;;;7.20;3.47;;;;;;;22.27;66.82;99099.84;2074474;28;20671;-49
2022/10/13 02:41:15;;;;;;;11.32;3.90;;;;;;;22.26;66.81;99100.91;2071927;28;20079;-46
2022/10/13 02:42:16;;;;;;;7.95;4.20;;;;;;;22.27;66.67;99097.16;2073970;28;20058;-49
2022/10/13 02:43:18;;;;;;;8.27;4.43;;;;;;;22.26;66.43;99104.44;2072740;28;20553;-47
2022/10/13 02:44:19;;;;;;;6.43;3.53;;;;;;;22.27;66.52;99100.66;2073210;28;20160;-48
2022/10/13 02:45:21;;;;;;;7.47;2.95;;;;;;;22.27;66.37;99102.53;2071535;28;20499;-47
2022/10/13 02:46:22;;;;;;;9.93;3.67;;;;;;;22.26;66.27;99098.19;2074348;28;20798;-48
2022/10/13 02:47:25;;;;;;;13.60;4.13;;;;;;;22.27;66.58;99094.44;2072116;28;20053;-48
2022/10/13 02:48:26;;;;;;;8.25;3.47;;;;;;;22.26;66.37;99098.19;2072726;28;20048;-47
2022/10/13 02:49:28;;;;;;;11.02;4.22;;;;;;;22.28;66.45;99096.09;2070740;28;20128;-46
2022/10/13 02:50:29;;;;;;;5.47;3.05;;;;;;;22.27;66.54;99100.66;2066366;28;20057;-48
2022/10/13 02:51:31;;;;;;;9.65;3.20;;;;;;;22.28;66.58;99101.50;2074777;28;20048;-46
2022/10/13 02:52:32;;;;;;;7.25;3.95;;;;;;;22.26;66.55;99092.78;2067668;28;20045;-49
2022/10/13 02:53:33;;;;;;;7.50;3.70;;;;;;;22.26;66.58;99092.78;2073047;28;20141;-46
2022/10/13 02:54:34;;;;;;;6.97;3.25;;;;;;;22.25;66.51;99089.25;2070142;28;20053;-48
2022/10/13 02:55:36;;;;;;;6.75;3.67;;;;;;;22.26;66.68;99087.41;2078630;28;20498;-48
2022/10/13 02:56:37;;;;;;;8.25;3.88;;;;;;;22.26;66.56;99082.00;2078959;28;20049;-46
2022/10/13 02:57:38;;;;;;;7.00;3.40;;;;;;;22.26;66.56;99090.09;2080387;28;20051;-47
2022/10/13 02:58:39;;;;;;;6.97;3.85;;;;;;;22.24;66.64;99084.06;2079416;28;20049;-46
2022/10/13 02:59:41;;;;;;;7.07;3.28;;;;;;;22.26;66.59;99082.00;2080551;28;20053;-46
2022/10/13 03:00:42;;;;;;;8.50;3.05;;;;;;;22.25;66.58;99080.31;2076697;28;20053;-46
2022/10/13 03:01:44;;;;;;;3.85;3.10;;;;;;;22.26;66.52;99076.59;2077404;28;20041;-47
2022/10/13 03:02:46;;;;;;;6.50;4.53;;;;;;;22.25;66.42;99075.72;2075575;28;20045;-46
2022/10/13 03:03:48;;;;;;;5.47;2.95;;;;;;;22.25;66.55;99075.72;2077486;28;20084;-48
2022/10/13 03:04:49;;;;;;;7.15;4.00;;;;;;;22.25;66.63;99078.44;2081508;28;20048;-46
2022/10/13 03:05:51;;;;;;;5.95;3.45;;;;;;;22.26;66.55;99079.28;2079738;28;20137;-46
2022/10/13 03:06:52;;;;;;;8.93;3.40;;;;;;;22.26;66.41;99079.28;2078245;28;20765;-48
2022/10/13 03:07:53;;;;;;;6.35;3.00;;;;;;;22.25;66.42;99081.13;2076273;28;20466;-46
2022/10/13 03:08:54;;;;;;;7.53;3.80;;;;;;;22.27;66.33;99084.47;2079575;28;20486;-47
2022/10/13 03:09:56;;;;;;;7.47;3.22;;;;;;;22.26;66.45;99082.81;2076607;28;20049;-49
2022/10/13 03:10:57;;;;;;;5.07;3.03;;;;;;;22.27;66.59;99083.63;2069451;28;20084;-47
2022/10/13 03:11:59;;;;;;;15.48;3.83;;;;;;;22.25;66.48;99081.13;2070705;28;20061;-46
2022/10/13 03:13:00;;;;;;;10.65;4.32;;;;;;;22.27;66.66;99084.47;2068579;28;20410;-46
2022/10/13 03:14:01;;;;;;;7.10;3.00;;;;;;;22.27;66.64;99081.75;2072504;28;20096;-47
2022/10/13 03:15:03;;;;;;;12.50;5.00;;;;;;;22.26;66.74;99082.00;2069985;28;20727;-47
2022/10/13 03:16:06;;;;;;;7.88;3.30;;;;;;;22.26;66.60;99088.22;2069464;28;20051;-46
2022/10/13 03:17:07;;;;;;;15.50;3.80;;;;;;;22.25;66.78;99078.44;2070983;28;20424;-47
2022/10/13 03:18:10;;;;;;;6.35;3.33;;;;;;;22.26;66.70;99084.69;2068038;28;20139;-46
2022/10/13 03:19:11;;;;;;;11.45;4.05;;;;;;;22.25;66.76;99075.72;2071669;28;20049;-46
2022/10/13 03:20:12;;;;;;;11.65;4.28;;;;;;;22.25;66.84;99078.44;2070265;28;20079;-46
2022/10/13 03:21:13;;;;;;;6.38;3.20;;;;;;;22.25;66.67;99085.72;2069589;28;20061;-46
2022/10/13 03:22:15;;;;;;;8.75;3.90;;;;;;;22.25;66.52;99080.31;2076420;28;20140;-46
2022/10/13 03:23:16;;;;;;;8.50;4.18;;;;;;;22.25;66.71;99083.00;2072054;28;20833;-47
2022/10/13 03:24:18;;;;;;;10.00;3.30;;;;;;;22.25;66.59;99080.31;2072344;28;20088;-45
2022/10/13 03:25:19;;;;;;;10.27;4.65;;;;;;;22.25;66.60;99083.00;2068234;28;20133;-46
2022/10/13 03:26:20;;;;;;;6.57;3.88;;;;;;;22.24;66.69;99079.50;2069715;28;20523;-47
2022/10/13 03:27:21;;;;;;;6.10;3.20;;;;;;;22.24;66.65;99084.06;2071793;28;20049;-49
2022/10/13 03:28:23;;;;;;;11.60;3.53;;;;;;;22.26;66.74;99088.22;2070700;28;20053;-46
2022/10/13 03:29:24;;;;;;;10.68;4.97;;;;;;;22.24;66.85;99084.91;2070348;28;20061;-45
2022/10/13 03:30:26;;;;;;;7.65;3.78;;;;;;;22.23;66.52;99083.25;2070489;28;20045;-46
2022/10/13 03:31:27;;;;;;;11.77;3.83;;;;;;;22.24;66.69;99084.06;2072622;28;20080;-46
2022/10/13 03:32:30;;;;;;;7.13;3.10;;;;;;;22.24;66.54;99076.78;2072485;28;20140;-48
2022/10/13 03:33:32;;;;;;;10.50;4.60;;;;;;;22.24;66.52;99082.19;2072044;28;20057;-47
2022/10/13 03:34:34;;;;;;;7.50;3.20;;;;;;;22.23;66.58;99077.00;2067356;28;20045;-47
2022/10/13 03:35:35;;;;;;;6.38;3.25;;;;;;;22.24;66.72;99086.78;2069399;28;20605;-47
2022/10/13 03:36:37;;;;;;;7.18;3.25;;;;;;;22.23;66.47;99083.25;2068413;28;20060;-47
2022/10/13 03:37:38;;;;;;;12.05;3.92;;;;;;;22.24;66.43;99089.47;2073168;28;20095;-46
2022/10/13 03:38:39;;;;;;;5.72;2.78;;;;;;;22.23;66.51;99087.78;2069076;28;20206;-46
2022/10/13 03:39:40;;;;;;;7.53;3.53;;;;;;;22.24;66.56;99084.06;2067525;28;20045;-47
2022/10/13 03:40:42;;;;;;;5.35;3.28;;;;;;;22.22;66.55;99088.84;2072538;28;20041;-48
2022/10/13 03:41:43;;;;;;;4.93;2.72;;;;;;;22.23;66.42;99087.78;2071191;28;20106;-48
2022/10/13 03:42:45;;;;;;;9.30;3.92;;;;;;;22.22;66.59;99092.38;2072270;28;20046;-51
2022/10/13 03:43:45;;;;;;;9.77;3.85;;;;;;;22.23;66.53;99091.34;2070149;28;20060;-46
2022/10/13 03:44:48;;;;;;;8.20;3.75;;;;;;;22.24;66.41;99094.88;2069451;28;20057;-50
2022/10/13 03:45:54;;;;;;;6.63;3.15;;;;;;;22.23;66.59;99102.16;2070638;28;20864;-49
2022/10/13 03:46:56;;;;;;;6.30;3.92;;;;;;;22.22;66.49;99095.06;2068260;28;20058;-47
2022/10/13 03:47:57;;;;;;;9.65;3.30;;;;;;;22.22;66.56;99096.97;2071218;28;20666;-46
2022/10/13 03:49:01;;;;;;;5.22;3.33;;;;;;;22.23;66.42;99101.31;2066621;28;20702;-48
2022/10/13 03:50:02;;;;;;;7.47;4.00;;;;;;;22.21;66.21;99098.84;2072609;28;20075;-50
2022/10/13 03:51:06;;;;;;;7.25;3.75;;;;;;;22.21;66.38;99090.72;2068275;28;20069;-50
2022/10/13 03:52:07;;;;;;;8.43;3.80;;;;;;;22.22;66.43;99102.38;2072948;28;20140;-49
2022/10/13 03:53:10;;;;;;;7.75;3.63;;;;;;;22.23;66.30;99098.59;2072544;28;20068;-46
2022/10/13 03:54:11;;;;;;;9.20;3.35;;;;;;;22.22;66.40;99099.66;2070475;28;20149;-51
2022/10/13 03:55:13;;;;;;;7.60;4.03;;;;;;;22.21;66.37;99103.41;2066190;28;20049;-46
2022/10/13 03:56:16;;;;;;;7.75;3.53;;;;;;;22.23;66.54;99104.00;2071153;28;20083;-46
2022/10/13 03:57:18;;;;;;;11.10;3.25;;;;;;;22.21;66.36;99101.53;2071149;28;20050;-49
2022/10/13 03:58:19;;;;;;;7.82;3.10;;;;;;;22.21;66.58;99104.25;2067976;28;20188;-50
2022/10/13 03:59:21;;;;;;;11.15;3.03;;;;;;;22.22;66.26;99107.75;2070554;28;20507;-50
2022/10/13 04:00:22;;;;;;;9.77;4.00;;;;;;;22.22;66.58;99107.75;2069971;28;20130;-47
2022/10/13 04:01:27;;;;;;;9.05;3.63;;;;;;;22.22;66.25;99096.97;2073016;28;20054;-49
2022/10/13 04:02:27;;;;;;;8.77;3.15;;;;;;;22.21;66.36;99104.25;2079247;28;20555;-48
2022/10/13 04:03:29;;;;;;;13.50;3.40;;;;;;;22.21;66.46;99103.41;2073788;28;20083;-45
2022/10/13 04:04:32;;;;;;;5.22;2.80;;;;;;;22.21;66.51;99106.13;2070599;28;20054;-45
2022/10/13 04:05:34;;;;;;;5.25;3.15;;;;;;;22.20;66.32;99102.56;2066414;28;20412;-48
2022/10/13 04:06:35;;;;;;;9.00;3.88;;;;;;;22.21;66.61;99106.13;2066640;28;20114;-46
2022/10/13 04:07:37;;;;;;;10.52;3.47;;;;;;;22.21;66.20;99106.13;2068144;28;20114;-49
2022/10/13 04:08:37;;;;;;;5.65;3.05;;;;;;;22.21;66.40;99106.13;2073538;28;20128;-45
2022/10/13 04:09:39;;;;;;;8.68;3.15;;;;;;;22.20;66.53;99104.44;2067026;28;20056;-49
2022/10/13 04:10:41;;;;;;;20.10;3.40;;;;;;;22.19;66.29;99109.03;2068835;28;20962;-46
2022/10/13 04:11:43;;;;;;;9.55;3.95;;;;;;;22.20;66.41;99101.75;2068726;28;20770;-49
2022/10/13 04:12:43;;;;;;;5.47;2.97;;;;;;;22.20;66.47;99104.44;2068178;28;20060;-48
2022/10/13 04:13:46;;;;;;;9.98;3.30;;;;;;;22.19;66.29;99111.72;2070242;28;20137;-45
2022/10/13 04:14:46;;;;;;;9.48;3.83;;;;;;;22.20;66.35;99110.66;2069329;28;20080;-47
2022/10/13 04:15:48;;;;;;;6.72;3.45;;;;;;;22.21;66.14;99116.94;2071049;28;20576;-47
2022/10/13 04:16:49;;;;;;;9.82;4.00;;;;;;;22.19;66.14;99111.72;2073038;28;20541;-48
2022/10/13 04:17:51;;;;;;;7.70;4.00;;;;;;;22.20;66.23;99117.94;2069877;28;20048;-47
2022/10/13 04:18:54;;;;;;;11.35;3.13;;;;;;;22.21;66.42;99111.53;2072655;28;20053;-49
2022/10/13 04:19:58;;;;;;;5.20;2.78;;;;;;;22.21;66.51;99111.53;2067002;28;20124;-49
2022/10/13 04:20:58;;;;;;;10.93;3.45;;;;;;;22.20;66.16;99115.25;2073231;28;20048;-47
2022/10/13 04:22:00;;;;;;;7.30;3.70;;;;;;;22.22;66.07;99113.16;2070227;28;20042;-47
2022/10/13 04:23:01;;;;;;;8.95;3.55;;;;;;;22.21;66.04;99112.34;2072744;28;20053;-49
2022/10/13 04:24:04;;;;;;;12.05;3.60;;;;;;;22.22;66.14;99108.59;2074422;28;20489;-46
2022/10/13 04:25:06;;;;;;;8.00;3.75;;;;;;;22.21;65.64;99106.13;2072776;28;20056;-46
2022/10/13 04:26:15;;;;;;;15.13;3.42;;;;;;;22.19;65.81;99103.63;2074007;28;20056;-46
2022/10/13 04:27:17;;;;;;;5.30;2.95;;;;;;;22.18;65.77;99106.56;2070553;28;20073;-46
2022/10/13 04:28:19;;;;;;;9.45;2.95;;;;;;;22.19;66.06;99103.63;2072433;28;20104;-48
2022/10/13 04:29:20;;;;;;;5.82;3.13;;;;;;;22.19;66.05;99102.78;2073183;28;20057;-48
2022/10/13 04:30:22;;;;;;;19.45;4.07;;;;;;;22.18;65.80;99096.56;2072230;28;21134;-45
2022/10/13 04:31:23;;;;;;;8.45;3.55;;;;;;;22.18;65.75;99101.16;2071118;28;20050;-46
2022/10/13 04:32:25;;;;;;;8.68;3.70;;;;;;;22.17;65.71;99094.03;2073519;28;20045;-49
2022/10/13 04:33:26;;;;;;;10.13;3.08;;;;;;;22.17;65.81;99089.47;2075257;28;20560;-46
2022/10/13 04:34:28;;;;;;;4.47;2.85;;;;;;;22.17;65.69;99094.84;2073037;28;20061;-46
2022/10/13 04:35:30;;;;;;;5.88;3.17;;;;;;;22.18;65.60;99093.03;2076315;28;20105;-50
2022/10/13 04:36:32;;;;;;;6.13;3.13;;;;;;;22.16;65.42;99087.00;2074443;28;20092;-47
2022/10/13 04:37:33;;;;;;;5.68;3.33;;;;;;;22.15;65.33;99093.41;2073705;28;20058;-48
2022/10/13 04:38:35;;;;;;;12.75;3.25;;;;;;;22.17;66.00;99094.03;2072292;28;20056;-46
2022/10/13 04:39:35;;;;;;;8.07;3.58;;;;;;;22.24;65.80;99089.47;2073432;28;20118;-51
2022/10/13 04:40:37;;;;;;;13.80;3.28;;;;;;;22.26;66.04;99095.50;2071189;28;20112;-48
2022/10/13 04:41:38;;;;;;;14.98;4.28;;;;;;;22.30;66.05;99099.41;2071132;28;20041;-46
2022/10/13 04:42:40;;;;;;;7.18;3.50;;;;;;;22.27;66.22;99102.53;2073228;28;20111;-46
2022/10/13 04:43:41;;;;;;;9.88;4.43;;;;;;;22.26;66.14;99098.19;2073551;28;20056;-46
2022/10/13 04:44:43;;;;;;;12.15;4.75;;;;;;;22.26;65.89;99099.03;2071520;28;20058;-47
2022/10/13 04:45:44;;;;;;;12.07;4.70;;;;;;;22.24;65.62;99097.59;2073863;28;20430;-46
2022/10/13 04:46:46;;;;;;;9.00;4.15;;;;;;;22.23;65.48;99101.31;2073571;28;20059;-47
2022/10/13 04:47:46;;;;;;;18.27;5.80;;;;;;;22.23;65.47;99101.31;2070008;28;20053;-47
2022/10/13 04:48:48;;;;;;;;;;;;;;;22.11;65.75;99094.91;2073725;28;20053;-47
2022/10/13 04:49:48;;;;;;;;;;;;;;;22.02;65.67;99097.03;2075191;28;19924;-47
2022/10/13 04:51:00;;;;;;;17.67;4.30;;;;;;;22.05;65.44;99102.81;2072874;28;19921;-46
2022/10/13 04:52:01;;;;;;;8.88;3.30;;;;;;;22.11;65.04;99100.31;2073975;28;20605;-47
2022/10/13 04:53:02;;;;;;;22.95;6.40;;;;;;;22.14;65.02;99102.56;2071713;28;20051;-47
2022/10/13 04:54:04;;;;;;;12.95;4.50;;;;;;;22.15;64.62;99102.38;2073160;28;20053;-47
2022/10/13 04:55:07;;;;;;;8.52;4.35;;;;;;;22.17;64.49;99104.84;2075339;28;20045;-46
2022/10/13 04:56:10;;;;;;;14.65;4.40;;;;;;;22.17;64.67;99107.53;2080762;28;20052;-47
2022/10/13 04:57:12;;;;;;;9.45;4.88;;;;;;;22.17;64.55;99110.25;2075418;28;20049;-47
2022/10/13 04:58:12;;;;;;;10.93;4.40;;;;;;;22.18;64.51;99107.38;2078238;28;21136;-47